Terminal Aerodrome Forecast
Issued by NWS Cleveland, OH

Home | Current Version | Previous Version | Graphics & Text | Print | Product List | Glossary On
Versions: 1 2 3 4 5 6 7 8 9 10 11 12 13 14 15 16 17 18 19 20 21 22 23 24
037
FTUS41 KCLE 180540
TAFCLE
TAF
KCLE 180540Z 1806/1912 21010KT P6SM SCT120
     FM181100 22010KT P6SM SCT020 BKN060
      TEMPO 1812/1816 BKN020
     FM181600 25012G20KT P6SM BKN050
     FM182100 27012KT P6SM SCT050
     FM190000 25008KT P6SM SCT120=

USA.gov is the U.S. government's official web portal to all federal, state and local government web resources and services.